Cheyenne Regional Jerry Olson Field


Codes: KCYS/CYS
Name: Cheyenne Regional Jerry Olson Field
City: Cheyenne
Country: United States
Elevation: 6159 ft.
Wikipedia:

Photos at Cheyenne Regional Jerry Olson Field


   Photos courtesy of SpottingLog. You can add your own sightings and photos by signing up for a free trial today.



No photos found.

Weather at Cheyenne Regional Jerry Olson Field


Time (UTC)DescriptionTempratureWindCloud coverageVisibilityPressureHumidity
21-Jun-2024 12:00Clear Sky14°C4 mph, S0%10000m1022hPa90%
21-Jun-2024 15:00Scattered Clouds16°C2 mph, S33%10000m1019hPa78%
21-Jun-2024 18:00Broken Clouds23°C2 mph, S62%10000m1014hPa48%
21-Jun-2024 21:00Light Rain28°C20 mph, S87%10000m1007hPa30%
22-Jun-2024 00:00Light Rain19°C9 mph, NE70%10000m1011hPa63%
22-Jun-2024 03:00Light Rain14°C11 mph, N100%10000m1014hPa87%
22-Jun-2024 06:00Light Rain17°C7 mph, W100%10000m1012hPa60%
22-Jun-2024 09:00Scattered Clouds16°C20 mph, W36%10000m1013hPa54%
22-Jun-2024 12:00Few Clouds15°C18 mph, W18%10000m1014hPa55%
22-Jun-2024 15:00Clear Sky23°C22 mph, W0%10000m1013hPa31%
22-Jun-2024 18:00Clear Sky27°C16 mph, NW0%10000m1012hPa21%
22-Jun-2024 21:00Broken Clouds30°C11 mph, NW65%10000m1009hPa16%
23-Jun-2024 00:00Broken Clouds27°C4 mph, SW74%10000m1010hPa22%
23-Jun-2024 03:00Scattered Clouds19°C9 mph, S41%10000m1013hPa46%
23-Jun-2024 06:00Scattered Clouds18°C9 mph, SW38%10000m1014hPa48%
23-Jun-2024 09:00Clear Sky18°C11 mph, W0%10000m1013hPa39%
23-Jun-2024 12:00Clear Sky18°C11 mph, W0%10000m1013hPa37%
23-Jun-2024 15:00Clear Sky28°C16 mph, W0%10000m1011hPa21%
23-Jun-2024 18:00Clear Sky31°C11 mph, W1%10000m1009hPa15%
23-Jun-2024 21:00Scattered Clouds33°C4 mph, W50%10000m1006hPa12%
24-Jun-2024 00:00Light Rain24°C18 mph, S73%10000m1009hPa36%
24-Jun-2024 03:00Light Rain20°C25 mph, NW52%10000m1012hPa45%
24-Jun-2024 06:00Broken Clouds21°C7 mph, SW56%10000m1008hPa34%
24-Jun-2024 09:00Few Clouds20°C9 mph, SW15%10000m1008hPa35%
24-Jun-2024 12:00Scattered Clouds20°C11 mph, W37%10000m1009hPa35%
24-Jun-2024 15:00Broken Clouds28°C20 mph, W53%10000m1007hPa24%
24-Jun-2024 18:00Scattered Clouds32°C11 mph, NW32%10000m1005hPa15%
24-Jun-2024 21:00Scattered Clouds26°C31 mph, NW41%10000m1007hPa29%
25-Jun-2024 00:00Light Rain27°C7 mph, SW65%10000m1005hPa26%
25-Jun-2024 03:00Moderate Rain17°C11 mph, S100%10000m1010hPa61%
25-Jun-2024 06:00Overcast Clouds18°C7 mph, SW99%10000m1009hPa56%
25-Jun-2024 09:00Clear Sky18°C16 mph, NW4%10000m1009hPa47%
25-Jun-2024 12:00Clear Sky16°C11 mph, NW2%10000m1012hPa54%
25-Jun-2024 15:00Clear Sky20°C18 mph, N0%10000m1014hPa36%
25-Jun-2024 18:00Clear Sky26°C13 mph, NE0%10000m1012hPa26%
25-Jun-2024 21:00Few Clouds28°C16 mph, E17%10000m1010hPa21%
26-Jun-2024 00:00Light Rain25°C9 mph, N43%10000m1012hPa29%
26-Jun-2024 03:00Light Rain18°C4 mph, SW86%10000m1015hPa61%
26-Jun-2024 06:00Scattered Clouds17°C11 mph, SW46%10000m1016hPa62%
26-Jun-2024 09:00Clear Sky16°C9 mph, SW1%10000m1015hPa64%